EW2611 Weather Reports


Display with metric or nautical units.
time (UTC)temp
F
wind
direction
speed
MPH
gust
MPH
rain 1hr
in
rain 24hr
in
rain mn
in
humidity
%
barometer
mb
20210925070047 51 360 0.0 0.0 0.00 0.00 0.00 94 1018.9
20210925064558 51 360 0.0 0.0 0.00 0.00 0.00 94 1018.8
20210925063103 51 360 0.0 0.0 0.00 0.00 0.00 94 1018.9
20210925061545 52 360 0.0 0.0 0.00 0.00 0.00 94 1018.8
20210925060029 52 360 0.0 0.0 0.00 0.00 0.00 94 1018.8
20210925054558 52 360 0.0 0.0 0.00 0.00 0.00 94 1018.7
20210925053026 52 360 0.0 0.0 0.00 0.00 0.00 94 1018.7
20210925051632 51 360 0.0 0.0 0.00 0.00 0.00 93 1018.7
20210925050104 52 360 0.0 0.0 0.00 0.00 0.00 93 1018.7
20210925044523 52 360 0.0 0.0 0.00 0.00 0.00 93 1018.7
20210925043022 53 360 0.0 0.0 0.00 0.00 0.00 93 1018.8
20210925041542 52 360 0.0 0.0 0.00 0.00 0.00 93 1018.6
20210925040022 53 360 0.0 0.0 0.00 0.00 0.00 93 1018.6
20210925034521 53 360 0.0 0.0 0.00 0.00 0.00 92 1018.6
20210925033042 53 360 0.0 0.0 0.00 0.00 0.00 92 1018.6
20210925031529 53 360 0.0 0.0 0.00 0.00 0.00 92 1018.6
20210925030121 54 360 0.0 0.0 0.00 0.00 0.00 91 1018.4
20210925024522 54 360 0.0 0.0 0.00 0.00 0.00 91 1018.5
20210925023051 55 360 0.0 0.0 0.00 0.00 0.00 91 1018.4
20210925021519 55 360 0.0 0.0 0.00 0.00 0.00 91 1018.5
20210925020024 55 360 0.0 0.0 0.00 0.00 0.00 90 1018.4
20210925014525 56 360 0.0 0.0 0.00 0.00 0.00 89 1018.6
20210925013021 56 360 0.0 0.0 0.00 0.00 0.00 89 1018.6
20210925011526 57 360 0.0 0.0 0.00 0.00 0.00 89 1018.6
20210925010022 57 360 0.0 0.0 0.00 0.00 0.00 88 1018.6
20210925004559 58 360 0.0 0.0 0.00 0.00 0.00 86 1018.5
20210925003018 60 360 0.0 0.0 0.00 0.00 0.00 85 1018.5
20210925001522 61 360 0.0 0.0 0.00 0.00 0.00 82 1018.5
20210925000025 62 360 0.0 0.0 0.00 0.00 0.00 78 1018.3
20210924234513 64 360 0.0 0.0 0.00 0.00 0.00 73 1018.4
20210924233029 66 360 0.0 0.0 0.00 0.00 0.00 70 1018.3
20210924231524 68 360 0.0 0.0 0.00 0.00 0.00 67 1018.3
20210924230028 70 360 0.0 0.0 0.00 0.00 0.00 62 1018.3
20210924224512 72 360 0.0 0.0 0.00 0.00 0.00 57 1018.3
20210924223015 73 360 0.0 0.0 0.00 0.00 0.00 55 1018.4
20210924221510 73 360 0.0 0.0 0.00 0.00 0.00 54 1018.2
20210924220015 74 360 0.0 0.0 0.00 0.00 0.00 54 1018.1
20210924214509 73 360 0.0 0.0 0.00 0.00 0.00 52 1018.1
20210924213010 74 360 0.0 0.0 0.00 0.00 0.00 50 1018.2
20210924211505 72 360 0.0 0.0 0.00 0.00 0.00 51 1018.3
20210924210004 73 360 0.0 0.0 0.00 0.00 0.00 50 1018.3
20210924204508 74 360 0.0 0.0 0.00 0.00 0.00 49 1018.3
20210924203001 73 360 0.0 0.0 0.00 0.00 0.00 51 1018.5
20210924201630 72 360 0.0 0.0 0.00 0.00 0.00 52 1018.4
20210924200132 72 360 0.0 0.0 0.00 0.00 0.00 51 1018.4
20210924194637 73 360 0.0 0.0 0.00 0.00 0.00 52 1018.7
20210924193115 74 360 0.0 0.0 0.00 0.00 0.00 53 1018.7
20210924191624 72 360 0.0 0.0 0.00 0.00 0.00 55 1019.1
20210924190150 73 360 0.0 0.0 0.00 0.00 0.00 51 1019.4
20210924184607 73 360 0.0 0.0 0.00 0.00 0.00 54 1019.6
20210924183103 71 360 0.0 0.0 0.00 0.00 0.00 54 1019.8
20210924181620 72 360 0.0 0.0 0.00 0.00 0.00 53 1019.9
20210924180103 71 360 0.0 0.0 0.00 0.00 0.00 52 1020.2
20210924174615 70 360 0.0 0.0 0.00 0.00 0.00 58 1020.3
20210924173056 70 360 0.0 0.0 0.00 0.00 0.00 64 1020.5
20210924171542 69 360 0.0 0.0 0.00 0.00 0.00 58 1020.6
20210924170104 69 360 0.0 0.0 0.00 0.00 0.00 60 1020.7
20210924164542 68 360 0.0 0.0 0.00 0.00 0.00 59 1020.9
20210924163059 68 360 0.0 0.0 0.00 0.00 0.00 61 1021.1
20210924161633 68 360 0.0 0.0 0.00 0.00 0.00 63 1021.2
20210924160112 67 360 0.0 0.0 0.00 0.00 0.00 61 1021.3
20210924154611 66 360 0.0 0.0 0.00 0.00 0.00 63 1021.3
20210924153043 64 360 0.0 0.0 0.00 0.00 0.00 69 1021.3
20210924151532 63 360 0.0 0.0 0.00 0.00 0.00 77 1021.2
20210924150027 60 360 0.0 0.0 0.00 0.00 0.00 87 1021.0
20210924144535 58 360 0.0 0.0 0.00 0.00 0.00 95 1021.1
20210924143018 56 360 0.0 0.0 0.00 0.00 0.00 96 1021.2
20210924141524 55 360 0.0 0.0 0.00 0.00 0.00 96 1021.0
20210924140005 54 360 0.0 0.0 0.00 0.00 0.00 96 1021.0
20210924134654 53 360 0.0 0.0 0.00 0.00 0.00 96 1020.9
20210924133249 52 360 0.0 0.0 0.00 0.00 0.00 96 1020.9
20210924131636 50 360 0.0 0.0 0.00 0.00 0.00 96 1021.0
20210924130149 49 360 0.0 0.0 0.00 0.00 0.00 95 1020.8
20210924124635 48 360 0.0 0.0 0.00 0.00 0.00 95 1020.8
20210924123217 48 360 0.0 0.0 0.00 0.00 0.00 95 1020.5
20210924121603 47 360 0.0 0.0 0.00 0.00 0.00 95 1020.4
20210924120153 47 360 0.0 0.0 0.00 0.00 0.00 95 1020.2
20210924114707 47 360 0.0 0.0 0.00 0.00 0.00 95 1020.1
20210924113137 47 360 0.0 0.0 0.00 0.00 0.00 95 1019.8
20210924111600 47 360 0.0 0.0 0.00 0.00 0.00 95 1019.6
20210924110044 47 360 0.0 0.0 0.00 0.00 0.00 95 1019.5
20210924104556 47 360 0.0 0.0 0.00 0.00 0.00 95 1019.4
20210924103136 48 360 0.0 0.0 0.00 0.00 0.00 95 1019.3
20210924101549 47 360 0.0 0.0 0.00 0.00 0.00 95 1019.2
20210924100043 47 360 0.0 0.0 0.00 0.00 0.00 95 1019.3
20210924094554 47 360 0.0 0.0 0.00 0.00 0.00 95 1019.3
20210924093043 47 360 0.0 0.0 0.00 0.00 0.00 95 1019.1
20210924083047 48 360 0.0 0.0 0.00 0.00 0.00 95 1019.0
20210924081603 48 360 0.0 0.0 0.00 0.00 0.00 94 1018.9
20210924080030 48 360 0.0 0.0 0.00 0.00 0.00 94 1018.8
20210924074627 48 360 0.0 0.0 0.00 0.00 0.00 94 1018.8
20210924073051 49 360 0.0 0.0 0.00 0.00 0.00 95 1018.9
20210924071526 49 360 0.0 0.0 0.00 0.00 0.00 94 1018.8